createdAt,value
2022-10-03T00:00:11.597Z,70.60
2022-10-03T00:04:43.746Z,70.90
2022-10-03T00:08:55.586Z,70.80
2022-10-03T00:13:19.882Z,71.20
2022-10-03T00:17:31.719Z,71.00
2022-10-03T00:22:01.826Z,71.50
2022-10-03T00:26:27.329Z,71.50
2022-10-03T00:30:42.736Z,72.00
2022-10-03T00:34:51.194Z,72.40
2022-10-03T00:39:12.117Z,72.60
2022-10-03T00:43:56.435Z,72.80
2022-10-03T00:48:20.472Z,72.30
2022-10-03T00:52:45.334Z,72.70
2022-10-03T00:56:57.831Z,72.50
2022-10-03T01:01:20.743Z,73.00
2022-10-03T01:05:41.269Z,72.50
2022-10-03T01:09:56.028Z,73.00
2022-10-03T01:14:27.263Z,72.90
2022-10-03T01:18:45.637Z,73.00
2022-10-03T01:23:12.402Z,73.40
2022-10-03T01:27:26.686Z,73.60
2022-10-03T01:31:57.399Z,73.70
2022-10-03T01:36:12.118Z,73.20
2022-10-03T01:40:40.897Z,73.00
2022-10-03T01:45:08.809Z,73.60
2022-10-03T01:49:19.861Z,73.80
2022-10-03T01:54:13.541Z,74.10
2022-10-03T01:58:56.754Z,73.60
2022-10-03T02:03:14.563Z,74.10
2022-10-03T02:07:49.189Z,75.20
2022-10-03T02:11:52.238Z,75.60
2022-10-03T02:16:21.324Z,75.40
2022-10-03T02:20:43.354Z,75.60
2022-10-03T02:24:57.442Z,75.60
2022-10-03T02:29:13.798Z,75.70
2022-10-03T02:33:37.964Z,75.70
2022-10-03T02:38:15.582Z,75.50
2022-10-03T02:42:45.828Z,75.70
2022-10-03T02:47:00.873Z,76.00
2022-10-03T02:51:37.017Z,76.10
2022-10-03T02:55:42.818Z,76.10
2022-10-03T03:00:09.509Z,75.30
2022-10-03T03:04:21.167Z,76.40
2022-10-03T03:08:24.841Z,76.40
2022-10-03T03:12:51.641Z,76.20
2022-10-03T03:17:19.440Z,76.30
2022-10-03T03:21:53.178Z,76.10
2022-10-03T03:26:18.540Z,76.30
2022-10-03T03:30:25.601Z,76.90
2022-10-03T03:34:49.515Z,77.00
2022-10-03T03:39:18.919Z,77.50
2022-10-03T03:43:44.695Z,77.70
2022-10-03T03:47:59.892Z,77.70
2022-10-03T03:52:35.099Z,78.00
2022-10-03T03:56:43.777Z,78.10
2022-10-03T04:01:21.253Z,78.10
2022-10-03T04:05:50.604Z,78.30
2022-10-03T04:10:27.697Z,78.40
2022-10-03T04:14:58.903Z,78.10
2022-10-03T04:19:12.677Z,78.10
2022-10-03T04:23:34.073Z,78.50
2022-10-03T04:27:44.525Z,78.20
2022-10-03T04:32:22.162Z,78.10
2022-10-03T04:36:43.610Z,77.90
2022-10-03T04:41:12.426Z,78.00
2022-10-03T04:45:28.806Z,78.30
2022-10-03T04:49:42.640Z,78.30
2022-10-03T04:54:06.740Z,77.90
2022-10-03T04:58:30.546Z,78.00
2022-10-03T05:02:58.155Z,78.10
2022-10-03T05:07:19.876Z,78.10
2022-10-03T05:11:59.594Z,78.00
2022-10-03T05:16:14.228Z,78.10
2022-10-03T06:07:31.031Z,77.90
2022-10-03T06:11:40.813Z,78.00
2022-10-03T06:15:55.868Z,78.10
2022-10-03T06:20:47.735Z,78.20
2022-10-03T06:24:58.468Z,77.90
2022-10-03T06:29:36.960Z,78.20
2022-10-03T06:34:02.122Z,78.10
2022-10-03T06:38:15.961Z,78.60
2022-10-03T06:42:31.748Z,78.50
2022-10-03T06:46:59.942Z,78.20
2022-10-03T06:51:40.246Z,78.20
2022-10-03T06:55:50.823Z,77.60
2022-10-03T07:00:17.444Z,77.20
2022-10-03T07:04:55.038Z,76.80
2022-10-03T07:09:36.155Z,76.70
2022-10-03T07:18:37.975Z,76.20
2022-10-03T07:23:09.187Z,75.70
2022-10-03T07:27:33.854Z,74.80
2022-10-03T07:31:40.617Z,74.20
2022-10-03T07:36:51.083Z,74.20
2022-10-03T07:41:06.328Z,73.90
2022-10-03T07:45:52.078Z,73.70
2022-10-03T07:50:18.153Z,73.70
2022-10-03T07:54:37.730Z,73.50
2022-10-03T07:59:25.011Z,73.00
2022-10-03T08:03:46.866Z,73.10
2022-10-03T08:08:37.970Z,72.70
2022-10-03T08:13:31.163Z,72.70
2022-10-03T08:17:57.302Z,71.90
2022-10-03T08:22:09.645Z,72.00
2022-10-03T08:32:26.903Z,70.30
2022-10-03T08:57:30.792Z,66.70
2022-10-03T09:26:19.691Z,63.00
2022-10-03T09:36:25.191Z,62.60
2022-10-03T09:55:02.203Z,61.90
2022-10-03T09:59:41.541Z,62.10
2022-10-03T10:04:55.205Z,62.30
2022-10-03T10:27:42.217Z,58.10
2022-10-03T11:03:01.098Z,53.70
2022-10-03T11:07:38.596Z,52.60
2022-10-03T11:12:17.981Z,52.20
2022-10-03T11:27:09.129Z,50.30
2022-10-03T11:31:29.264Z,48.80
2022-10-03T11:41:20.753Z,49.70
2022-10-03T12:12:00.491Z,48.20
2022-10-03T13:00:36.773Z,48.40
2022-10-03T13:05:06.829Z,48.40
2022-10-03T13:09:28.755Z,47.80
2022-10-03T13:13:57.559Z,47.20
2022-10-03T13:18:44.583Z,47.80
2022-10-03T13:23:33.765Z,48.10
2022-10-03T13:28:05.127Z,48.50
2022-10-03T13:32:46.346Z,48.90
2022-10-03T13:37:39.889Z,48.40
2022-10-03T13:47:23.173Z,48.90
2022-10-03T13:51:53.676Z,48.80
2022-10-03T13:56:41.140Z,48.80
2022-10-03T14:24:56.885Z,48.70
2022-10-03T14:31:05.957Z,48.60
2022-10-03T15:01:48.917Z,48.30
2022-10-03T15:12:21.778Z,47.90
2022-10-03T15:40:09.485Z,48.50
2022-10-03T15:44:47.174Z,48.80
2022-10-03T15:53:36.987Z,47.90
2022-10-03T15:57:48.230Z,48.10
2022-10-03T16:01:54.878Z,48.60
2022-10-03T16:06:48.589Z,48.80
2022-10-03T16:11:15.381Z,49.30
2022-10-03T16:15:18.280Z,49.10
2022-10-03T16:19:58.460Z,49.40
2022-10-03T16:24:07.182Z,49.60
2022-10-03T16:32:39.268Z,50.30
2022-10-03T16:36:50.496Z,50.70
2022-10-03T16:41:33.276Z,50.80
2022-10-03T16:45:42.122Z,51.20
2022-10-03T16:50:15.644Z,51.90
2022-10-03T16:54:20.558Z,52.20
2022-10-03T16:58:33.584Z,52.90
2022-10-03T17:02:39.087Z,53.50
2022-10-03T17:06:48.357Z,53.90
2022-10-03T17:10:58.385Z,54.30
2022-10-03T17:15:09.190Z,54.70
2022-10-03T17:19:34.683Z,54.70
2022-10-03T17:23:50.493Z,54.80
2022-10-03T17:27:55.028Z,55.40
2022-10-03T17:32:37.539Z,56.00
2022-10-03T17:37:07.531Z,56.30
2022-10-03T17:41:18.969Z,56.20
2022-10-03T18:52:41.893Z,58.20
2022-10-03T18:56:48.737Z,58.30
2022-10-03T19:01:06.603Z,58.90
2022-10-03T19:05:28.241Z,58.80
2022-10-03T19:09:40.008Z,58.80
2022-10-03T19:13:54.231Z,59.00
2022-10-03T19:18:21.862Z,59.20
2022-10-03T19:22:34.329Z,58.90
2022-10-03T19:26:38.381Z,59.20
2022-10-03T19:30:43.263Z,59.30
2022-10-03T19:34:48.717Z,59.30
2022-10-03T19:38:54.550Z,60.00
2022-10-03T19:43:05.444Z,60.70
2022-10-03T19:47:22.302Z,61.00
2022-10-03T19:51:27.028Z,62.00
2022-10-03T19:55:32.968Z,62.40
2022-10-03T19:59:58.604Z,62.20
2022-10-03T20:04:01.600Z,61.60
2022-10-03T20:08:30.452Z,62.20
2022-10-03T20:12:40.338Z,62.50
2022-10-03T20:16:49.098Z,62.40
2022-10-03T20:20:54.991Z,62.40
2022-10-03T20:24:59.705Z,62.90
2022-10-03T20:29:14.603Z,61.80
2022-10-03T20:33:23.538Z,61.50
2022-10-03T20:37:39.576Z,61.20
2022-10-03T20:41:42.815Z,60.90
2022-10-03T20:45:59.318Z,61.00
2022-10-03T20:50:43.356Z,60.40
2022-10-03T20:54:57.900Z,60.30
2022-10-03T20:59:05.724Z,60.20
2022-10-03T21:03:17.328Z,60.60
2022-10-03T21:07:32.477Z,60.90
2022-10-03T21:11:39.731Z,61.00
2022-10-03T21:15:47.883Z,61.00
2022-10-03T21:20:03.702Z,61.30
2022-10-03T21:24:11.530Z,61.40
2022-10-03T21:28:32.199Z,61.50
2022-10-03T21:33:03.146Z,61.70
2022-10-03T21:37:28.673Z,61.60
2022-10-03T21:41:47.105Z,62.00
2022-10-03T21:46:27.457Z,62.00
2022-10-03T21:50:36.865Z,62.00
2022-10-03T21:54:48.439Z,62.50
2022-10-03T21:59:19.061Z,62.60
2022-10-03T22:03:25.835Z,62.50
2022-10-03T22:07:42.859Z,63.10
2022-10-03T22:11:53.031Z,63.20
2022-10-03T22:16:30.622Z,63.30
2022-10-03T22:20:35.527Z,63.70
2022-10-03T22:24:48.985Z,63.70
2022-10-03T22:29:04.580Z,63.90
2022-10-03T22:33:23.397Z,63.90
2022-10-03T22:37:27.022Z,64.00
2022-10-03T22:41:31.238Z,64.30
2022-10-03T22:45:40.419Z,64.50
2022-10-03T22:49:47.510Z,64.80
2022-10-03T22:53:58.455Z,64.90
2022-10-03T22:58:02.511Z,65.00
2022-10-03T23:02:09.390Z,65.00
2022-10-03T23:06:38.292Z,65.20
2022-10-03T23:11:01.368Z,65.00
2022-10-03T23:15:06.656Z,64.90
2022-10-03T23:20:06.431Z,65.30
2022-10-03T23:24:39.397Z,64.80
2022-10-03T23:29:00.729Z,65.20
2022-10-03T23:33:03.951Z,65.90
2022-10-03T23:37:15.743Z,66.00
2022-10-03T23:41:38.985Z,66.30
2022-10-03T23:45:43.682Z,66.30
2022-10-03T23:49:48.569Z,66.40
2022-10-03T23:53:54.313Z,66.40
2022-10-03T23:57:57.830Z,66.40
